Waveland, MS (39576)

7:56 PM CST on December 03, 2016 (GMT -0600)
Sadie's Weather on Jeff Davis | | Change Station

Elev 22 ft 30.29 °N, 89.37 °W | Updated 13 seconds ago

Mostly Cloudy
Mostly Cloudy
61.0 °F
Feels Like 61.0 °F
N
2.2
Wind Variable Wind from NE
Gusts 4.5 mph

Today
High -- | Low -- °F
--% Chance of Precip.
Yesterday
High -- | Low -- °F
Precip. -- in
Pressure 30.04 in
Visibility 10.0 miles
Clouds Scattered Clouds 3000 ft
Mostly Cloudy 8500 ft
Dew Point 40 °F
Humidity 46%
Rainfall 0.00 in
Snow Depth Not available.
6:38 AM 4:56 PM
Waxing Crescent, 18% visible
METAR KHSA 040154Z 08008KT 10SM SCT030 BKN085 15/01 A3004
Pressure 30.04 in
Visibility 10.0 miles
Clouds Scattered Clouds 3000 ft
Mostly Cloudy 8500 ft
Dew Point 40 °F
Humidity 46%
Rainfall 0.00 in
Snow Depth Not available.
6:38 AM 4:56 PM
Waxing Crescent, 18% visible
METAR KHSA 040154Z 08008KT 10SM SCT030 BKN085 15/01 A3004

10-Day Weather Forecast

Almanac

Astronomy

Dec. 03, 2016 Rise Set
Actual Time
Civil Twilight
Nautical Twilight
Astronomical Twilight
Moon
Length of Visible Light
Length of Day
Tomorrow will be .
, % of the Moon is Illuminated

Today's Extremes

State Highs State Lows

Community

WunderPhotos

Upload Photos

1,955,560 photos uploaded!

WunderBlog® & News

Nearby

Air Quality

  Air Quality AQ Index Pollutant
Not available.

Snow Depth

Station Depth Elevation

Earthquake Activity

City Distance Mag. Time & Date
Minimum magnitude displayed is 2.5.

Coastal Water Temperatures

Place Temperature

Stations

Nearby Weather Stations

Station Location Temp. Windchill Dew Point Humidity Wind Precip. Elev Updated Type
                   

Watches & Warnings

There are currently no watches in effect.